createdAt,value
2022-08-24T00:02:18.306Z,89.10
2022-08-24T00:04:51.978Z,89.10
2022-08-24T00:07:28.199Z,89.10
2022-08-24T00:09:56.344Z,89.00
2022-08-24T00:12:31.197Z,89.00
2022-08-24T00:14:58.517Z,89.00
2022-08-24T00:17:32.724Z,89.10
2022-08-24T00:20:07.607Z,89.20
2022-08-24T00:22:41.868Z,89.10
2022-08-24T00:25:17.054Z,89.10
2022-08-24T00:27:51.227Z,89.20
2022-08-24T00:30:20.317Z,89.20
2022-08-24T00:32:55.071Z,89.20
2022-08-24T00:35:22.678Z,89.10
2022-08-24T00:37:57.338Z,88.90
2022-08-24T00:40:27.625Z,88.80
2022-08-24T00:43:02.168Z,88.70
2022-08-24T00:45:30.436Z,88.70
2022-08-24T00:48:10.172Z,88.80
2022-08-24T00:50:43.457Z,88.80
2022-08-24T00:53:20.102Z,88.80
2022-08-24T00:55:50.562Z,88.80
2022-08-24T00:58:27.853Z,88.70
2022-08-24T01:00:58.280Z,88.70
2022-08-24T01:03:34.168Z,88.80
2022-08-24T01:06:01.802Z,88.80
2022-08-24T01:08:35.357Z,88.80
2022-08-24T01:11:11.502Z,88.70
2022-08-24T01:13:39.647Z,88.60
2022-08-24T01:16:15.580Z,88.60
2022-08-24T01:19:03.006Z,88.70
2022-08-24T01:21:47.242Z,88.70
2022-08-24T01:24:16.374Z,88.80
2022-08-24T01:26:54.322Z,88.80
2022-08-24T01:29:28.182Z,88.70
2022-08-24T01:32:05.175Z,88.70
2022-08-24T01:34:32.613Z,88.70
2022-08-24T01:37:07.977Z,88.70
2022-08-24T01:39:37.336Z,88.60
2022-08-24T01:42:11.180Z,88.70
2022-08-24T01:44:39.539Z,88.60
2022-08-24T01:47:15.101Z,88.60
2022-08-24T01:49:45.094Z,88.60
2022-08-24T01:52:20.946Z,88.60
2022-08-24T01:54:49.465Z,88.50
2022-08-24T01:57:24.277Z,88.60
2022-08-24T01:59:52.412Z,88.60
2022-08-24T02:02:29.514Z,88.60
2022-08-24T02:04:56.851Z,88.60
2022-08-24T02:07:31.554Z,88.60
2022-08-24T02:09:59.661Z,88.60
2022-08-24T02:12:34.241Z,88.60
2022-08-24T02:15:09.315Z,88.60
2022-08-24T02:17:36.956Z,88.60
2022-08-24T02:20:11.190Z,88.70
2022-08-24T02:22:44.402Z,88.70
2022-08-24T02:25:18.276Z,88.60
2022-08-24T02:27:52.575Z,88.50
2022-08-24T02:30:26.106Z,88.50
2022-08-24T02:32:54.897Z,88.30
2022-08-24T02:35:29.248Z,88.10
2022-08-24T02:37:56.656Z,88.00
2022-08-24T02:40:31.881Z,88.10
2022-08-24T02:43:06.175Z,88.10
2022-08-24T02:45:40.225Z,88.00
2022-08-24T02:48:07.949Z,88.10
2022-08-24T02:50:45.307Z,88.30
2022-08-24T02:53:14.543Z,88.30
2022-08-24T02:55:52.486Z,88.00
2022-08-24T02:58:20.935Z,87.90
2022-08-24T03:00:57.431Z,88.00
2022-08-24T03:03:32.327Z,88.10
2022-08-24T03:06:06.066Z,88.00
2022-08-24T03:08:34.697Z,87.70
2022-08-24T03:11:03.820Z,87.50
2022-08-24T03:13:38.416Z,87.50
2022-08-24T03:16:13.400Z,87.60
2022-08-24T03:18:40.696Z,87.70
2022-08-24T03:21:22.331Z,87.60
2022-08-24T03:23:57.061Z,87.70
2022-08-24T03:26:31.986Z,87.70
2022-08-24T03:28:59.425Z,87.70
2022-08-24T03:31:28.552Z,87.70
2022-08-24T03:34:02.593Z,87.60
2022-08-24T03:36:31.139Z,87.70
2022-08-24T03:38:58.478Z,87.90
2022-08-24T03:41:35.393Z,87.90
2022-08-24T03:44:05.450Z,87.70
2022-08-24T03:46:43.581Z,87.70
2022-08-24T03:49:11.017Z,87.70
2022-08-24T03:51:45.421Z,87.70
2022-08-24T03:54:15.319Z,87.80
2022-08-24T03:56:49.136Z,87.70
2022-08-24T03:59:23.086Z,87.70
2022-08-24T04:01:57.242Z,87.80
2022-08-24T04:04:31.396Z,87.80
2022-08-24T04:07:06.586Z,87.90
2022-08-24T04:09:34.031Z,87.90
2022-08-24T04:12:08.281Z,87.90
2022-08-24T04:14:42.201Z,87.90
2022-08-24T04:17:18.578Z,87.80
2022-08-24T04:20:07.617Z,87.70
2022-08-24T04:22:43.698Z,87.70
2022-08-24T04:25:24.930Z,87.80
2022-08-24T04:27:59.203Z,87.80
2022-08-24T04:30:27.041Z,87.70
2022-08-24T04:33:01.756Z,87.70
2022-08-24T04:35:29.286Z,87.60
2022-08-24T04:37:56.751Z,87.70
2022-08-24T04:40:31.166Z,87.70
2022-08-24T04:43:08.494Z,87.80
2022-08-24T04:45:46.975Z,87.80
2022-08-24T04:48:15.166Z,87.70
2022-08-24T04:50:50.327Z,87.70
2022-08-24T04:53:19.842Z,87.80
2022-08-24T04:55:56.716Z,87.80
2022-08-24T04:58:24.581Z,87.80
2022-08-24T05:00:58.293Z,87.80
2022-08-24T05:03:27.982Z,87.80
2022-08-24T05:05:55.287Z,87.80
2022-08-24T05:08:29.291Z,87.70
2022-08-24T05:10:56.792Z,87.60
2022-08-24T05:13:30.827Z,87.70
2022-08-24T05:16:04.417Z,87.60
2022-08-24T05:18:40.297Z,87.50
2022-08-24T05:21:28.498Z,87.60
2022-08-24T05:24:18.106Z,87.80
2022-08-24T05:26:53.616Z,87.90
2022-08-24T05:29:29.456Z,87.80
2022-08-24T05:31:56.998Z,87.70
2022-08-24T05:34:31.266Z,87.70
2022-08-24T05:36:58.536Z,87.60
2022-08-24T05:39:32.526Z,87.60
2022-08-24T05:42:02.168Z,87.70
2022-08-24T05:44:39.335Z,87.60
2022-08-24T05:47:06.831Z,87.60
2022-08-24T05:49:41.804Z,87.60
2022-08-24T05:52:09.632Z,87.70
2022-08-24T05:54:43.432Z,87.80
2022-08-24T05:57:10.631Z,87.80
2022-08-24T05:59:45.817Z,87.80
2022-08-24T06:02:13.989Z,87.70
2022-08-24T06:04:48.177Z,87.70
2022-08-24T06:07:17.307Z,87.60
2022-08-24T06:09:51.343Z,87.70
2022-08-24T06:12:19.041Z,87.60
2022-08-24T06:14:54.282Z,87.70
2022-08-24T06:17:30.414Z,87.70
2022-08-24T06:20:06.197Z,87.70
2022-08-24T06:22:46.343Z,87.70
2022-08-24T06:25:39.299Z,87.50
2022-08-24T06:28:13.233Z,87.50
2022-08-24T06:30:47.316Z,87.30
2022-08-24T06:33:14.662Z,87.50
2022-08-24T06:35:49.463Z,87.30
2022-08-24T06:38:17.382Z,87.30
2022-08-24T06:40:53.369Z,87.30
2022-08-24T06:43:21.061Z,87.50
2022-08-24T06:45:48.455Z,87.50
2022-08-24T06:48:22.706Z,87.50
2022-08-24T06:50:50.372Z,87.50
2022-08-24T06:53:24.402Z,87.50
2022-08-24T06:55:52.281Z,87.50
2022-08-24T06:58:26.336Z,87.50
2022-08-24T07:01:02.393Z,87.50
2022-08-24T07:03:36.303Z,87.50
2022-08-24T07:06:05.042Z,87.40
2022-08-24T07:08:39.590Z,87.40
2022-08-24T07:11:07.591Z,87.30
2022-08-24T07:13:41.250Z,87.30
2022-08-24T07:16:19.448Z,87.20
2022-08-24T07:18:49.803Z,87.20
2022-08-24T07:21:32.472Z,87.20
2022-08-24T07:24:00.577Z,87.10
2022-08-24T07:26:36.806Z,87.00
2022-08-24T07:29:05.969Z,87.00
2022-08-24T07:31:44.865Z,87.00
2022-08-24T07:34:12.996Z,86.90
2022-08-24T07:36:48.766Z,86.80
2022-08-24T07:39:16.386Z,86.80
2022-08-24T07:42:11.468Z,86.80
2022-08-24T07:44:39.182Z,86.70
2022-08-24T07:47:37.757Z,86.80
2022-08-24T07:50:01.800Z,86.70
2022-08-24T07:52:35.789Z,86.90
2022-08-24T07:55:04.262Z,86.90
2022-08-24T07:57:33.304Z,86.80
2022-08-24T08:00:09.656Z,86.70
2022-08-24T08:02:44.280Z,86.60
2022-08-24T08:05:11.618Z,86.40
2022-08-24T08:07:47.751Z,86.20
2022-08-24T08:10:17.607Z,86.10
2022-08-24T08:12:52.168Z,86.00
2022-08-24T08:15:26.177Z,85.80
2022-08-24T08:18:01.696Z,85.40
2022-08-24T08:20:51.733Z,85.30
2022-08-24T08:23:45.641Z,85.50
2022-08-24T08:26:17.771Z,85.50
2022-08-24T08:28:52.661Z,85.30
2022-08-24T08:31:20.235Z,85.20
2022-08-24T08:33:54.726Z,85.00
2022-08-24T08:36:23.306Z,84.60
2022-08-24T08:38:57.426Z,84.30
2022-08-24T08:41:41.228Z,84.20
2022-08-24T08:44:35.376Z,84.20
2022-08-24T08:47:35.750Z,84.20
2022-08-24T08:50:15.185Z,83.80
2022-08-24T08:53:09.156Z,83.30
2022-08-24T08:55:46.772Z,83.20
2022-08-24T08:58:15.305Z,83.20
2022-08-24T09:00:49.319Z,83.10
2022-08-24T09:03:19.914Z,83.20
2022-08-24T09:05:47.975Z,83.60
2022-08-24T09:08:22.790Z,83.80
2022-08-24T09:11:02.770Z,83.80
2022-08-24T09:13:49.832Z,83.90
2022-08-24T09:16:30.745Z,83.60
2022-08-24T09:19:13.174Z,83.10
2022-08-24T09:22:05.510Z,82.90
2022-08-24T09:24:58.845Z,82.60
2022-08-24T09:27:26.197Z,82.40
2022-08-24T09:30:00.555Z,81.90
2022-08-24T09:32:34.484Z,81.70
2022-08-24T09:35:08.347Z,81.20
2022-08-24T09:37:52.284Z,80.90
2022-08-24T09:40:41.209Z,79.60
2022-08-24T09:43:21.940Z,79.60
2022-08-24T09:46:30.131Z,79.40
2022-08-24T09:49:11.195Z,79.10
2022-08-24T09:52:06.739Z,78.20
2022-08-24T09:54:59.797Z,77.80
2022-08-24T09:58:00.466Z,77.00
2022-08-24T10:00:35.049Z,76.50
2022-08-24T10:03:06.740Z,76.00
2022-08-24T10:06:00.029Z,75.50
2022-08-24T10:08:27.254Z,75.10
2022-08-24T10:11:13.748Z,74.90
2022-08-24T10:14:00.855Z,74.30
2022-08-24T10:16:29.414Z,74.50
2022-08-24T10:19:07.508Z,74.50
2022-08-24T10:21:58.429Z,74.30
2022-08-24T10:24:42.574Z,74.00
2022-08-24T10:27:19.169Z,73.70
2022-08-24T10:29:54.188Z,73.50
2022-08-24T10:32:46.415Z,73.40
2022-08-24T10:35:16.578Z,73.60
2022-08-24T10:38:19.714Z,73.70
2022-08-24T10:40:52.864Z,73.90
2022-08-24T10:43:42.484Z,74.20
2022-08-24T10:46:16.197Z,74.10
2022-08-24T10:48:59.124Z,73.70
2022-08-24T10:51:52.004Z,73.50
2022-08-24T10:54:27.055Z,73.90
2022-08-24T10:57:15.511Z,73.90
2022-08-24T10:59:51.400Z,73.80
2022-08-24T11:02:36.697Z,72.90
2022-08-24T11:05:12.800Z,72.30
2022-08-24T11:08:04.715Z,71.10
2022-08-24T11:10:40.909Z,70.50
2022-08-24T11:13:34.579Z,69.80
2022-08-24T11:16:11.436Z,69.10
2022-08-24T11:19:05.271Z,69.00
2022-08-24T11:21:43.421Z,68.60
2022-08-24T11:24:31.376Z,67.70
2022-08-24T11:27:15.115Z,67.70
2022-08-24T11:29:54.085Z,66.90
2022-08-24T11:32:35.596Z,66.40
2022-08-24T11:35:06.166Z,67.00
2022-08-24T11:37:35.726Z,66.60
2022-08-24T11:40:12.938Z,66.60
2022-08-24T11:42:40.376Z,66.50
2022-08-24T11:45:08.485Z,65.40
2022-08-24T11:47:48.425Z,65.20
2022-08-24T11:50:41.959Z,65.00
2022-08-24T11:53:13.077Z,64.50
2022-08-24T11:56:05.845Z,63.40
2022-08-24T11:58:44.341Z,62.40
2022-08-24T12:01:35.558Z,60.90
2022-08-24T12:04:24.536Z,61.10
2022-08-24T12:06:55.636Z,61.20
2022-08-24T12:09:33.538Z,60.90
2022-08-24T12:12:11.632Z,60.90
2022-08-24T12:14:43.275Z,61.10
2022-08-24T12:17:35.049Z,60.80
2022-08-24T12:20:39.561Z,60.40
2022-08-24T12:23:33.115Z,59.80
2022-08-24T12:26:02.527Z,59.10
2022-08-24T12:28:40.005Z,59.00
2022-08-24T12:31:24.649Z,58.80
2022-08-24T12:34:01.595Z,58.40
2022-08-24T12:36:43.856Z,58.10
2022-08-24T12:39:13.715Z,58.00
2022-08-24T12:42:05.385Z,57.80
2022-08-24T12:44:49.469Z,57.30
2022-08-24T12:47:35.555Z,57.60
2022-08-24T12:50:07.203Z,57.80
2022-08-24T12:52:41.414Z,58.20
2022-08-24T12:55:15.806Z,58.40
2022-08-24T12:57:54.827Z,58.60
2022-08-24T13:00:49.435Z,58.40
2022-08-24T13:03:40.268Z,58.40
2022-08-24T13:06:46.430Z,58.50
2022-08-24T13:09:16.635Z,58.50
2022-08-24T13:11:54.479Z,58.70
2022-08-24T13:14:24.933Z,58.90
2022-08-24T13:17:05.126Z,58.80
2022-08-24T13:19:59.346Z,58.70
2022-08-24T13:23:00.404Z,58.50
2022-08-24T13:25:43.624Z,58.20
2022-08-24T13:28:35.669Z,57.50
2022-08-24T13:31:13.549Z,57.50
2022-08-24T13:33:43.850Z,57.60
2022-08-24T13:36:36.970Z,57.90
2022-08-24T13:39:16.333Z,58.10
2022-08-24T13:41:50.444Z,58.20
2022-08-24T13:44:24.869Z,58.50
2022-08-24T13:47:04.953Z,58.90
2022-08-24T13:49:39.639Z,59.00
2022-08-24T13:52:38.129Z,59.00
2022-08-24T13:55:30.898Z,59.00
2022-08-24T13:58:17.258Z,58.80
2022-08-24T14:01:11.834Z,58.40
2022-08-24T14:04:00.928Z,58.40
2022-08-24T14:06:30.954Z,58.20
2022-08-24T14:09:22.693Z,57.80
2022-08-24T14:12:07.516Z,57.40
2022-08-24T14:14:38.063Z,57.40
2022-08-24T14:17:42.430Z,57.60
2022-08-24T14:20:32.713Z,57.90
2022-08-24T14:23:04.048Z,58.10
2022-08-24T14:25:44.045Z,58.20
2022-08-24T14:28:23.763Z,58.00
2022-08-24T14:31:18.283Z,57.90
2022-08-24T14:34:12.664Z,57.90
2022-08-24T14:36:53.836Z,57.60
2022-08-24T14:39:47.588Z,57.40
2022-08-24T14:42:21.134Z,57.40
2022-08-24T14:44:58.467Z,57.40
2022-08-24T14:47:41.596Z,57.30
2022-08-24T14:50:17.418Z,57.50
2022-08-24T14:53:16.660Z,57.60
2022-08-24T14:56:00.958Z,57.50
2022-08-24T14:58:38.123Z,57.20
2022-08-24T15:01:24.606Z,57.30
2022-08-24T15:04:32.061Z,57.60
2022-08-24T15:07:32.544Z,57.90
2022-08-24T15:10:01.334Z,58.20
2022-08-24T15:12:49.375Z,58.90
2022-08-24T15:15:19.932Z,59.20
2022-08-24T15:17:56.336Z,59.70
2022-08-24T15:20:52.549Z,59.90
2022-08-24T15:23:46.869Z,60.10
2022-08-24T15:26:14.190Z,60.10
2022-08-24T15:28:56.655Z,60.20
2022-08-24T15:31:35.960Z,60.50
2022-08-24T15:34:11.689Z,60.60
2022-08-24T15:36:38.984Z,60.80
2022-08-24T15:39:13.784Z,61.00
2022-08-24T15:41:43.399Z,61.20
2022-08-24T15:44:21.211Z,61.40
2022-08-24T15:46:53.579Z,61.60
2022-08-24T15:49:30.403Z,61.70
2022-08-24T15:52:09.342Z,61.90
2022-08-24T15:54:45.534Z,62.10
2022-08-24T15:57:25.489Z,62.30
2022-08-24T16:00:01.565Z,62.50
2022-08-24T16:02:31.615Z,62.60
2022-08-24T16:05:21.718Z,62.80
2022-08-24T16:08:19.348Z,62.80
2022-08-24T16:10:51.826Z,63.00
2022-08-24T16:13:26.112Z,63.10
2022-08-24T16:16:05.814Z,63.30
2022-08-24T16:19:08.622Z,63.40
2022-08-24T16:22:10.428Z,63.60
2022-08-24T16:24:52.474Z,63.80
2022-08-24T16:27:20.510Z,63.90
2022-08-24T16:29:57.288Z,64.00
2022-08-24T16:32:39.394Z,64.20
2022-08-24T16:35:30.575Z,64.40
2022-08-24T16:38:04.582Z,64.60
2022-08-24T16:40:35.035Z,64.80
2022-08-24T16:43:09.524Z,65.00
2022-08-24T16:45:44.905Z,65.20
2022-08-24T16:48:19.038Z,65.30
2022-08-24T16:50:50.519Z,65.40
2022-08-24T16:53:24.468Z,65.60
2022-08-24T16:55:54.794Z,65.70
2022-08-24T16:58:31.970Z,65.80
2022-08-24T17:00:59.706Z,66.00
2022-08-24T17:03:35.638Z,66.10
2022-08-24T17:06:03.194Z,66.20
2022-08-24T17:08:37.628Z,66.40
2022-08-24T17:11:11.603Z,66.40
2022-08-24T17:13:54.381Z,66.60
2022-08-24T17:16:30.597Z,66.80
2022-08-24T17:19:00.388Z,66.90
2022-08-24T17:21:35.595Z,67.00
2022-08-24T17:24:10.923Z,67.20
2022-08-24T17:26:48.440Z,67.40
2022-08-24T17:29:18.675Z,67.60
2022-08-24T17:31:54.554Z,67.80
2022-08-24T17:34:23.260Z,68.00
2022-08-24T17:36:58.400Z,68.20
2022-08-24T17:39:25.959Z,68.40
2022-08-24T17:41:53.729Z,68.70
2022-08-24T17:44:31.589Z,68.90
2022-08-24T17:47:07.885Z,69.20
2022-08-24T17:49:35.315Z,69.60
2022-08-24T17:52:09.689Z,69.90
2022-08-24T17:54:36.994Z,70.20
2022-08-24T17:57:05.239Z,70.50
2022-08-24T17:59:41.529Z,70.80
2022-08-24T18:02:18.004Z,71.10
2022-08-24T18:04:45.379Z,71.40
2022-08-24T18:07:42.714Z,71.70
2022-08-24T18:10:14.089Z,71.90
2022-08-24T18:12:47.484Z,72.30
2022-08-24T18:15:15.050Z,72.50
2022-08-24T18:17:54.504Z,72.70
2022-08-24T18:20:26.744Z,73.10
2022-08-24T18:23:11.956Z,73.30
2022-08-24T18:25:46.657Z,73.50
2022-08-24T18:28:23.904Z,73.80
2022-08-24T18:30:52.709Z,74.10
2022-08-24T18:33:42.545Z,74.30
2022-08-24T18:36:10.143Z,74.30
2022-08-24T18:38:38.072Z,74.60
2022-08-24T18:41:11.612Z,74.70
2022-08-24T18:43:45.452Z,74.90
2022-08-24T18:46:16.616Z,75.00
2022-08-24T18:48:50.630Z,75.20
2022-08-24T18:51:24.681Z,75.40
2022-08-24T18:54:09.616Z,75.70
2022-08-24T18:56:37.891Z,75.90
2022-08-24T18:59:12.619Z,76.00
2022-08-24T19:02:05.780Z,76.30
2022-08-24T19:04:39.690Z,76.40
2022-08-24T19:07:07.881Z,76.60
2022-08-24T19:09:41.633Z,76.80
2022-08-24T19:12:15.713Z,77.00
2022-08-24T19:14:46.355Z,77.10
2022-08-24T19:17:21.661Z,77.30
2022-08-24T19:19:49.303Z,77.40
2022-08-24T19:22:29.686Z,77.50
2022-08-24T19:25:02.678Z,77.50
2022-08-24T19:27:36.665Z,77.40
2022-08-24T19:30:05.496Z,77.50
2022-08-24T19:32:45.526Z,77.60
2022-08-24T19:35:21.721Z,77.70
2022-08-24T19:37:50.638Z,77.90
2022-08-24T19:40:24.496Z,77.90
2022-08-24T19:43:00.733Z,78.10
2022-08-24T19:45:46.977Z,78.20
2022-08-24T19:48:21.981Z,78.20
2022-08-24T19:50:50.317Z,78.20
2022-08-24T19:53:24.697Z,78.30
2022-08-24T19:55:53.941Z,78.30
2022-08-24T19:58:36.717Z,78.40
2022-08-24T20:01:17.906Z,78.60
2022-08-24T20:03:51.891Z,78.50
2022-08-24T20:06:22.516Z,78.50
2022-08-24T20:08:56.921Z,78.50
2022-08-24T20:11:27.401Z,78.50
2022-08-24T20:14:02.458Z,78.60
2022-08-24T20:16:39.523Z,78.50
2022-08-24T20:19:13.372Z,78.50
2022-08-24T20:21:48.406Z,78.60
2022-08-24T20:24:28.980Z,78.70
2022-08-24T20:26:56.427Z,79.00
2022-08-24T20:29:31.383Z,79.10
2022-08-24T20:32:03.046Z,79.20
2022-08-24T20:34:37.416Z,79.10
2022-08-24T20:37:05.676Z,79.00
2022-08-24T20:39:35.036Z,79.10
2022-08-24T20:42:15.625Z,79.30
2022-08-24T20:44:48.091Z,79.50
2022-08-24T20:47:22.694Z,79.40
2022-08-24T20:49:51.080Z,79.40
2022-08-24T20:52:24.777Z,79.40
2022-08-24T20:54:59.956Z,79.40
2022-08-24T20:57:27.412Z,79.30
2022-08-24T21:00:04.958Z,79.50
2022-08-24T21:02:32.392Z,79.40
2022-08-24T21:05:06.751Z,79.30
2022-08-24T21:07:34.231Z,79.50
2022-08-24T21:10:08.677Z,79.50
2022-08-24T21:12:38.562Z,79.60
2022-08-24T21:15:13.827Z,79.80
2022-08-24T21:17:49.036Z,79.60
2022-08-24T21:20:17.242Z,79.40
2022-08-24T21:22:57.693Z,79.50
2022-08-24T21:25:39.617Z,79.70
2022-08-24T21:28:07.104Z,79.80
2022-08-24T21:30:40.454Z,79.90
2022-08-24T21:33:28.551Z,79.90
2022-08-24T21:36:04.212Z,79.80
2022-08-24T21:38:31.837Z,79.90
2022-08-24T21:41:05.914Z,80.00
2022-08-24T21:43:33.654Z,80.00
2022-08-24T21:46:07.843Z,79.90
2022-08-24T21:48:35.211Z,79.90
2022-08-24T21:51:10.671Z,80.00
2022-08-24T21:53:38.371Z,79.90
2022-08-24T21:56:13.774Z,79.70
2022-08-24T21:58:41.572Z,79.70
2022-08-24T22:01:16.164Z,79.80
2022-08-24T22:03:50.651Z,79.90
2022-08-24T22:06:18.031Z,79.80
2022-08-24T22:08:51.751Z,79.80
2022-08-24T22:11:26.933Z,79.80
2022-08-24T22:13:55.091Z,79.80
2022-08-24T22:16:23.062Z,79.90
2022-08-24T22:18:58.652Z,80.10
2022-08-24T22:21:45.903Z,80.20
2022-08-24T22:24:23.231Z,80.30
2022-08-24T22:26:57.692Z,80.00
2022-08-24T22:29:25.431Z,79.90
2022-08-24T22:31:59.493Z,79.80
2022-08-24T22:34:27.096Z,79.90
2022-08-24T22:37:03.873Z,79.80
2022-08-24T22:39:31.291Z,79.80
2022-08-24T22:42:05.627Z,79.80
2022-08-24T22:44:41.493Z,79.90
2022-08-24T22:47:11.872Z,80.10
2022-08-24T22:49:53.087Z,80.20
2022-08-24T22:52:26.463Z,80.10
2022-08-24T22:54:55.626Z,80.00
2022-08-24T22:57:30.376Z,80.20
2022-08-24T23:00:04.826Z,80.10
2022-08-24T23:02:32.518Z,80.20
2022-08-24T23:05:06.737Z,80.10
2022-08-24T23:07:35.736Z,80.00
2022-08-24T23:10:13.101Z,80.10
2022-08-24T23:12:40.360Z,80.20
2022-08-24T23:15:14.563Z,80.40
2022-08-24T23:17:43.551Z,80.40
2022-08-24T23:20:17.674Z,80.20
2022-08-24T23:22:51.756Z,80.10
2022-08-24T23:25:33.932Z,80.00
2022-08-24T23:28:01.693Z,80.10
2022-08-24T23:30:35.632Z,80.10
2022-08-24T23:33:04.068Z,80.20
2022-08-24T23:35:40.051Z,80.20
2022-08-24T23:38:09.061Z,80.20
2022-08-24T23:40:47.441Z,80.30
2022-08-24T23:43:15.709Z,80.40
2022-08-24T23:45:51.923Z,80.50
2022-08-24T23:48:20.791Z,80.40
2022-08-24T23:50:54.757Z,80.50
2022-08-24T23:53:31.671Z,80.60
2022-08-24T23:56:06.723Z,80.40
2022-08-24T23:58:40.691Z,80.30
